Terminal Aerodrome Forecast
Issued by NWS Grand Forks, ND

Home | Current Version | Previous Version | Graphics & Text | Print | Product List | Glossary On
Versions: 1 2 3 4 5 6 7 8 9 10 11 12 13 14 15 16 17 18 19 20 21 22
000
FTUS43 KFGF 200230 AAB
TAFFAR
TAF AMD
KFAR 200230Z 2003/2024 16015G30KT P6SM OVC020
     FM200400 17016G25KT P6SM TSRA OVC040CB
     FM200800 24007KT P6SM BKN070
     FM201700 25012KT P6SM FEW250
     FM202200 22011KT P6SM SKC=

USA.gov is the U.S. government's official web portal to all federal, state and local government web resources and services.